sensor_id;sensor_type;location;lat;lon;timestamp;pressure;altitude;pressure_sealevel;temperature;humidity
75418;BME280;63997;52.112;5.420;2023-02-14T00:01:26;103674.63;;;1.33;87.06
75418;BME280;63997;52.112;5.420;2023-02-14T00:03:52;103672.00;;;1.33;87.35
75418;BME280;63997;52.112;5.420;2023-02-14T00:06:19;103666.75;;;1.33;87.29
75418;BME280;63997;52.112;5.420;2023-02-14T00:08:46;103668.16;;;1.29;87.19
75418;BME280;63997;52.112;5.420;2023-02-14T00:11:12;103668.16;;;1.29;87.29
75418;BME280;63997;52.112;5.420;2023-02-14T00:13:39;103667.09;;;1.24;87.24
75418;BME280;63997;52.112;5.420;2023-02-14T00:16:26;103667.09;;;1.24;87.44
75418;BME280;63997;52.112;5.420;2023-02-14T00:18:52;103664.63;;;1.22;87.62
75418;BME280;63997;52.112;5.420;2023-02-14T00:21:33;103668.00;;;1.16;87.78
75418;BME280;63997;52.112;5.420;2023-02-14T00:24:06;103666.38;;;1.15;87.84
75418;BME280;63997;52.112;5.420;2023-02-14T00:26:33;103668.00;;;1.16;88.16
75418;BME280;63997;52.112;5.420;2023-02-14T00:29:00;103662.94;;;1.15;87.97
75418;BME280;63997;52.112;5.420;2023-02-14T00:31:26;103666.72;;;1.12;87.99
75418;BME280;63997;52.112;5.420;2023-02-14T00:33:53;103666.50;;;1.07;87.76
75418;BME280;63997;52.112;5.420;2023-02-14T00:36:19;103669.13;;;1.07;88.02
75418;BME280;63997;52.112;5.420;2023-02-14T00:38:46;103666.59;;;0.99;87.85
75418;BME280;63997;52.112;5.420;2023-02-14T00:41:13;103658.66;;;0.92;87.72
75418;BME280;63997;52.112;5.420;2023-02-14T00:43:49;103662.84;;;0.87;87.55
75418;BME280;63997;52.112;5.420;2023-02-14T00:46:16;103658.16;;;0.82;87.79
75418;BME280;63997;52.112;5.420;2023-02-14T00:48:44;103665.75;;;0.77;87.72
75418;BME280;63997;52.112;5.420;2023-02-14T00:51:11;103661.03;;;0.72;87.63
75418;BME280;63997;52.112;5.420;2023-02-14T00:53:38;103661.41;;;0.69;87.65
75418;BME280;63997;52.112;5.420;2023-02-14T00:56:06;103659.81;;;0.68;87.74
75418;BME280;63997;52.112;5.420;2023-02-14T00:58:33;103659.53;;;0.63;87.79
75418;BME280;63997;52.112;5.420;2023-02-14T01:00:59;103651.59;;;0.57;87.79
75418;BME280;63997;52.112;5.420;2023-02-14T01:03:27;103651.16;;;0.53;87.58
75418;BME280;63997;52.112;5.420;2023-02-14T01:05:53;103648.72;;;0.51;88.04
75418;BME280;63997;52.112;5.420;2023-02-14T01:08:21;103647.00;;;0.44;87.88
75418;BME280;63997;52.112;5.420;2023-02-14T01:10:48;103648.16;;;0.41;88.10
75418;BME280;63997;52.112;5.420;2023-02-14T01:13:15;103639.84;;;0.38;88.14
75418;BME280;63997;52.112;5.420;2023-02-14T01:15:47;103646.72;;;0.39;88.27
75418;BME280;63997;52.112;5.420;2023-02-14T01:18:15;103644.09;;;0.39;88.59
75418;BME280;63997;52.112;5.420;2023-02-14T01:20:43;103635.63;;;0.37;88.47
75418;BME280;63997;52.112;5.420;2023-02-14T01:23:10;103637.44;;;0.36;88.47
75418;BME280;63997;52.112;5.420;2023-02-14T01:25:37;103635.97;;;0.34;88.79
75418;BME280;63997;52.112;5.420;2023-02-14T01:28:05;103640.59;;;0.32;88.71
75418;BME280;63997;52.112;5.420;2023-02-14T01:30:32;103633.72;;;0.31;88.87
75418;BME280;63997;52.112;5.420;2023-02-14T01:32:58;103634.72;;;0.30;88.83
75418;BME280;63997;52.112;5.420;2023-02-14T01:35:25;103633.09;;;0.29;88.76
75418;BME280;63997;52.112;5.420;2023-02-14T01:37:51;103631.47;;;0.28;88.83
75418;BME280;63997;52.112;5.420;2023-02-14T01:40:17;103641.94;;;0.28;88.78
75418;BME280;63997;52.112;5.420;2023-02-14T01:42:44;103637.50;;;0.28;88.95
75418;BME280;63997;52.112;5.420;2023-02-14T01:45:16;103636.97;;;0.33;89.24
75418;BME280;63997;52.112;5.420;2023-02-14T01:47:45;103635.81;;;0.35;89.24
75418;BME280;63997;52.112;5.420;2023-02-14T01:50:17;103633.00;;;0.37;89.17
75418;BME280;63997;52.112;5.420;2023-02-14T01:53:03;103636.44;;;0.37;89.02
75418;BME280;63997;52.112;5.420;2023-02-14T01:55:33;103628.38;;;0.39;89.07
75418;BME280;63997;52.112;5.420;2023-02-14T01:58:08;103638.25;;;0.37;88.89
75418;BME280;63997;52.112;5.420;2023-02-14T02:00:36;103632.38;;;0.35;88.92
75418;BME280;63997;52.112;5.420;2023-02-14T02:03:35;103625.25;;;0.29;88.74
75418;BME280;63997;52.112;5.420;2023-02-14T02:06:22;103629.84;;;0.26;88.87
75418;BME280;63997;52.112;5.420;2023-02-14T02:09:01;103631.84;;;0.24;89.00
75418;BME280;63997;52.112;5.420;2023-02-14T02:11:28;103626.94;;;0.21;88.81
75418;BME280;63997;52.112;5.420;2023-02-14T02:13:54;103634.81;;;0.21;88.90
75418;BME280;63997;52.112;5.420;2023-02-14T02:16:40;103630.09;;;0.17;88.77
75418;BME280;63997;52.112;5.420;2023-02-14T02:19:37;103633.91;;;0.14;88.87
75418;BME280;63997;52.112;5.420;2023-02-14T02:22:12;103633.09;;;0.14;89.05
75418;BME280;63997;52.112;5.420;2023-02-14T02:27:13;103620.63;;;0.16;89.05
75418;BME280;63997;52.112;5.420;2023-02-14T02:30:04;103630.56;;;0.20;89.27
75418;BME280;63997;52.112;5.420;2023-02-14T02:35:49;103621.81;;;0.28;89.29
75418;BME280;63997;52.112;5.420;2023-02-14T02:41:22;103627.69;;;0.30;89.36
75418;BME280;63997;52.112;5.420;2023-02-14T02:46:43;103618.94;;;0.23;89.10
75418;BME280;63997;52.112;5.420;2023-02-14T02:52:19;103616.06;;;0.18;89.66
75418;BME280;63997;52.112;5.420;2023-02-14T02:58:23;103612.88;;;0.22;89.77
75418;BME280;63997;52.112;5.420;2023-02-14T03:00:52;103609.63;;;0.20;89.67
75418;BME280;63997;52.112;5.420;2023-02-14T03:03:22;103616.13;;;0.24;89.76
75418;BME280;63997;52.112;5.420;2023-02-14T03:06:08;103609.28;;;0.23;89.65
75418;BME280;63997;52.112;5.420;2023-02-14T03:08:34;103602.59;;;0.21;89.58
75418;BME280;63997;52.112;5.420;2023-02-14T03:11:01;103607.00;;;0.20;89.65
75418;BME280;63997;52.112;5.420;2023-02-14T03:13:46;103611.25;;;0.21;89.80
75418;BME280;63997;52.112;5.420;2023-02-14T03:21:46;103601.22;;;0.10;89.78
75418;BME280;63997;52.112;5.420;2023-02-14T03:24:19;103597.38;;;0.06;89.78
75418;BME280;63997;52.112;5.420;2023-02-14T03:27:03;103594.91;;;0.05;89.87
75418;BME280;63997;52.112;5.420;2023-02-14T03:32:14;103599.34;;;0.04;90.05
75418;BME280;63997;52.112;5.420;2023-02-14T03:37:30;103599.16;;;0.06;90.05
75418;BME280;63997;52.112;5.420;2023-02-14T03:40:05;103596.72;;;0.04;89.99
75418;BME280;63997;52.112;5.420;2023-02-14T03:42:36;103602.97;;;0.03;89.98
75418;BME280;63997;52.112;5.420;2023-02-14T03:45:07;103601.69;;;-0.01;89.92
75418;BME280;63997;52.112;5.420;2023-02-14T03:47:35;103603.69;;;-0.03;89.78
75418;BME280;63997;52.112;5.420;2023-02-14T03:50:08;103597.44;;;-0.02;90.15
75418;BME280;63997;52.112;5.420;2023-02-14T03:52:37;103594.84;;;-0.02;89.97
75418;BME280;63997;52.112;5.420;2023-02-14T03:55:06;103594.22;;;-0.04;90.16
75418;BME280;63997;52.112;5.420;2023-02-14T03:57:46;103590.78;;;-0.05;90.06
75418;BME280;63997;52.112;5.420;2023-02-14T04:00:17;103592.75;;;-0.07;89.91
75418;BME280;63997;52.112;5.420;2023-02-14T04:02:49;103592.75;;;-0.07;89.88
75418;BME280;63997;52.112;5.420;2023-02-14T04:05:22;103599.34;;;-0.11;89.65
75418;BME280;63997;52.112;5.420;2023-02-14T04:07:52;103591.84;;;-0.14;89.64
75418;BME280;63997;52.112;5.420;2023-02-14T04:10:19;103603.50;;;-0.16;89.73
75418;BME280;63997;52.112;5.420;2023-02-14T04:12:47;103601.41;;;-0.21;89.68
75418;BME280;63997;52.112;5.420;2023-02-14T04:15:14;103594.72;;;-0.23;89.63
75418;BME280;63997;52.112;5.420;2023-02-14T04:17:41;103594.28;;;-0.27;89.63
75418;BME280;63997;52.112;5.420;2023-02-14T04:20:26;103596.09;;;-0.28;89.69
75418;BME280;63997;52.112;5.420;2023-02-14T04:22:53;103600.84;;;-0.31;89.66
75418;BME280;63997;52.112;5.420;2023-02-14T04:25:20;103602.19;;;-0.35;89.55
75418;BME280;63997;52.112;5.420;2023-02-14T04:27:47;103596.13;;;-0.36;89.69
75418;BME280;63997;52.112;5.420;2023-02-14T04:30:14;103599.41;;;-0.34;89.59
75418;BME280;63997;52.112;5.420;2023-02-14T04:32:43;103600.56;;;-0.36;89.56
75418;BME280;63997;52.112;5.420;2023-02-14T04:35:09;103598.75;;;-0.36;89.50
75418;BME280;63997;52.112;5.420;2023-02-14T04:37:36;103598.13;;;-0.38;89.40
75418;BME280;63997;52.112;5.420;2023-02-14T04:40:02;103599.28;;;-0.40;89.42
75418;BME280;63997;52.112;5.420;2023-02-14T04:42:29;103598.47;;;-0.41;89.08
75418;BME280;63997;52.112;5.420;2023-02-14T04:44:55;103601.09;;;-0.41;89.51
75418;BME280;63997;52.112;5.420;2023-02-14T04:47:22;103600.28;;;-0.41;89.46
75418;BME280;63997;52.112;5.420;2023-02-14T04:49:48;103592.63;;;-0.43;89.32
75418;BME280;63997;52.112;5.420;2023-02-14T04:52:14;103588.53;;;-0.45;89.43
75418;BME280;63997;52.112;5.420;2023-02-14T04:54:41;103590.72;;;-0.49;89.22
75418;BME280;63997;52.112;5.420;2023-02-14T04:57:07;103590.91;;;-0.50;89.27
75418;BME280;63997;52.112;5.420;2023-02-14T04:59:34;103592.03;;;-0.53;89.21
75418;BME280;63997;52.112;5.420;2023-02-14T05:02:00;103590.59;;;-0.56;89.38
75418;BME280;63997;52.112;5.420;2023-02-14T05:04:27;103587.63;;;-0.52;89.47
75418;BME280;63997;52.112;5.420;2023-02-14T05:06:53;103585.50;;;-0.49;89.48
75418;BME280;63997;52.112;5.420;2023-02-14T05:09:20;103579.88;;;-0.46;89.56
75418;BME280;63997;52.112;5.420;2023-02-14T05:11:46;103578.75;;;-0.43;89.56
75418;BME280;63997;52.112;5.420;2023-02-14T05:14:12;103576.94;;;-0.43;89.36
75418;BME280;63997;52.112;5.420;2023-02-14T05:16:39;103582.97;;;-0.42;89.34
75418;BME280;63997;52.112;5.420;2023-02-14T05:19:05;103581.16;;;-0.42;89.29
75418;BME280;63997;52.112;5.420;2023-02-14T05:21:32;103574.66;;;-0.46;89.56
75418;BME280;63997;52.112;5.420;2023-02-14T05:23:59;103580.53;;;-0.44;89.66
75418;BME280;63997;52.112;5.420;2023-02-14T05:26:26;103580.53;;;-0.44;89.28
75418;BME280;63997;52.112;5.420;2023-02-14T05:28:53;103578.91;;;-0.45;89.45
75418;BME280;63997;52.112;5.420;2023-02-14T05:31:19;103577.28;;;-0.46;89.69
75418;BME280;63997;52.112;5.420;2023-02-14T05:33:46;103582.50;;;-0.46;89.28
75418;BME280;63997;52.112;5.420;2023-02-14T05:36:13;103577.66;;;-0.49;89.46
75418;BME280;63997;52.112;5.420;2023-02-14T05:38:39;103578.25;;;-0.47;89.54
75418;BME280;63997;52.112;5.420;2023-02-14T05:41:05;103575.31;;;-0.44;89.53
75418;BME280;63997;52.112;5.420;2023-02-14T05:43:32;103576.94;;;-0.43;89.60
75418;BME280;63997;52.112;5.420;2023-02-14T05:45:58;103571.69;;;-0.43;89.60
75418;BME280;63997;52.112;5.420;2023-02-14T05:48:25;103566.66;;;-0.44;89.47
75418;BME280;63997;52.112;5.420;2023-02-14T05:50:51;103575.22;;;-0.50;89.36
75418;BME280;63997;52.112;5.420;2023-02-14T05:53:18;103582.91;;;-0.57;89.20
75418;BME280;63997;52.112;5.420;2023-02-14T05:55:44;103577.41;;;-0.62;89.01
75418;BME280;63997;52.112;5.420;2023-02-14T05:58:10;103576.78;;;-0.64;89.24
75418;BME280;63997;52.112;5.420;2023-02-14T06:00:38;103579.75;;;-0.67;89.07
75418;BME280;63997;52.112;5.420;2023-02-14T06:03:06;103583.34;;;-0.68;89.24
75418;BME280;63997;52.112;5.420;2023-02-14T06:05:33;103579.09;;;-0.69;89.19
75418;BME280;63997;52.112;5.420;2023-02-14T06:07:59;103578.31;;;-0.70;89.15
75418;BME280;63997;52.112;5.420;2023-02-14T06:10:26;103573.25;;;-0.71;89.20
75418;BME280;63997;52.112;5.420;2023-02-14T06:12:53;103571.78;;;-0.74;89.11
75418;BME280;63997;52.112;5.420;2023-02-14T06:15:19;103575.41;;;-0.75;89.27
75418;BME280;63997;52.112;5.420;2023-02-14T06:17:54;103570.34;;;-0.76;89.45
75418;BME280;63997;52.112;5.420;2023-02-14T06:20:22;103573.97;;;-0.77;89.27
75418;BME280;63997;52.112;5.420;2023-02-14T06:22:50;103580.81;;;-0.76;89.19
75418;BME280;63997;52.112;5.420;2023-02-14T06:25:16;103581.78;;;-0.77;89.18
75418;BME280;63997;52.112;5.420;2023-02-14T06:27:43;103583.41;;;-0.76;89.38
75418;BME280;63997;52.112;5.420;2023-02-14T06:30:10;103580.19;;;-0.78;89.21
75418;BME280;63997;52.112;5.420;2023-02-14T06:32:36;103589.44;;;-0.76;89.43
75418;BME280;63997;52.112;5.420;2023-02-14T06:35:03;103587.66;;;-0.75;89.39
75418;BME280;63997;52.112;5.420;2023-02-14T06:37:30;103584.41;;;-0.77;89.48
75418;BME280;63997;52.112;5.420;2023-02-14T06:39:56;103587.03;;;-0.77;89.50
75418;BME280;63997;52.112;5.420;2023-02-14T06:42:23;103583.25;;;-0.75;89.81
75418;BME280;63997;52.112;5.420;2023-02-14T06:44:49;103586.50;;;-0.73;89.76
75418;BME280;63997;52.112;5.420;2023-02-14T06:47:16;103589.13;;;-0.73;89.80
75418;BME280;63997;52.112;5.420;2023-02-14T06:49:42;103586.84;;;-0.76;89.44
75418;BME280;63997;52.112;5.420;2023-02-14T06:52:08;103582.78;;;-0.78;89.60
75418;BME280;63997;52.112;5.420;2023-02-14T06:54:35;103583.75;;;-0.80;89.56
75418;BME280;63997;52.112;5.420;2023-02-14T06:57:02;103589.16;;;-0.81;89.72
75418;BME280;63997;52.112;5.420;2023-02-14T06:59:30;103585.91;;;-0.83;89.65
75418;BME280;63997;52.112;5.420;2023-02-14T07:01:56;103592.94;;;-0.84;89.42
75418;BME280;63997;52.112;5.420;2023-02-14T07:04:23;103587.88;;;-0.85;89.61
75418;BME280;63997;52.112;5.420;2023-02-14T07:06:49;103585.25;;;-0.85;89.78
75418;BME280;63997;52.112;5.420;2023-02-14T07:09:16;103590.97;;;-0.82;89.57
75418;BME280;63997;52.112;5.420;2023-02-14T07:11:44;103589.34;;;-0.83;89.52
75418;BME280;63997;52.112;5.420;2023-02-14T07:14:11;103579.88;;;-0.84;89.55
75418;BME280;63997;52.112;5.420;2023-02-14T07:16:38;103579.06;;;-0.84;89.59
75418;BME280;63997;52.112;5.420;2023-02-14T07:19:04;103585.91;;;-0.83;89.78
75418;BME280;63997;52.112;5.420;2023-02-14T07:21:31;103585.56;;;-0.80;89.88
75418;BME280;63997;52.112;5.420;2023-02-14T07:23:57;103592.88;;;-0.75;89.91
75418;BME280;63997;52.112;5.420;2023-02-14T07:26:24;103582.09;;;-0.72;89.96
75418;BME280;63997;52.112;5.420;2023-02-14T07:28:50;103585.00;;;-0.67;89.84
75418;BME280;63997;52.112;5.420;2023-02-14T07:31:18;103587.88;;;-0.62;89.85
75418;BME280;63997;52.112;5.420;2023-02-14T07:33:46;103595.38;;;-0.59;89.98
75418;BME280;63997;52.112;5.420;2023-02-14T07:36:12;103590.06;;;-0.51;89.91
75418;BME280;63997;52.112;5.420;2023-02-14T07:38:39;103590.34;;;-0.46;90.00
75418;BME280;63997;52.112;5.420;2023-02-14T07:41:05;103590.63;;;-0.41;89.94
75418;BME280;63997;52.112;5.420;2023-02-14T07:43:32;103592.72;;;-0.36;89.83
75418;BME280;63997;52.112;5.420;2023-02-14T07:46:00;103590.84;;;-0.28;90.06
75418;BME280;63997;52.112;5.420;2023-02-14T07:48:27;103598.59;;;-0.19;89.85
75418;BME280;63997;52.112;5.420;2023-02-14T07:50:57;103588.25;;;-0.13;89.90
75418;BME280;63997;52.112;5.420;2023-02-14T07:53:24;103598.78;;;-0.06;89.99
75418;BME280;63997;52.112;5.420;2023-02-14T07:55:51;103601.34;;;0.02;89.83
75418;BME280;63997;52.112;5.420;2023-02-14T07:58:18;103596.66;;;0.12;89.78
75418;BME280;63997;52.112;5.420;2023-02-14T08:00:44;103594.47;;;0.16;89.44
75418;BME280;63997;52.112;5.420;2023-02-14T08:03:14;103590.31;;;0.21;89.29
75418;BME280;63997;52.112;5.420;2023-02-14T08:05:40;103592.47;;;0.33;89.38
75418;BME280;63997;52.112;5.420;2023-02-14T08:08:07;103592.81;;;0.44;89.17
75418;BME280;63997;52.112;5.420;2023-02-14T08:10:33;103592.53;;;0.54;89.18
75418;BME280;63997;52.112;5.420;2023-02-14T08:13:00;103597.31;;;0.65;89.35
75418;BME280;63997;52.112;5.420;2023-02-14T08:15:29;103582.13;;;0.75;89.13
75418;BME280;63997;52.112;5.420;2023-02-14T08:18:15;103591.72;;;0.90;89.10
75418;BME280;63997;52.112;5.420;2023-02-14T08:20:46;103588.59;;;1.01;88.86
75418;BME280;63997;52.112;5.420;2023-02-14T08:23:18;103593.84;;;1.22;88.86
75418;BME280;63997;52.112;5.420;2023-02-14T08:25:47;103588.34;;;1.39;88.70
75418;BME280;63997;52.112;5.420;2023-02-14T08:28:13;103584.13;;;1.66;88.80
75418;BME280;63997;52.112;5.420;2023-02-14T08:30:40;103579.94;;;2.06;88.34
75418;BME280;63997;52.112;5.420;2023-02-14T08:33:07;103581.66;;;2.20;87.23
75418;BME280;63997;52.112;5.420;2023-02-14T08:35:34;103580.03;;;2.19;87.13
75418;BME280;63997;52.112;5.420;2023-02-14T08:38:02;103582.75;;;2.46;87.30
75418;BME280;63997;52.112;5.420;2023-02-14T08:40:29;103572.72;;;2.69;86.24
75418;BME280;63997;52.112;5.420;2023-02-14T08:42:55;103589.03;;;2.58;86.00
75418;BME280;63997;52.112;5.420;2023-02-14T08:45:22;103585.38;;;2.52;86.15
75418;BME280;63997;52.112;5.420;2023-02-14T08:47:48;103583.19;;;2.56;86.25
75418;BME280;63997;52.112;5.420;2023-02-14T08:50:16;103588.88;;;2.66;86.66
75418;BME280;63997;52.112;5.420;2023-02-14T08:52:43;103586.69;;;2.76;86.59
75418;BME280;63997;52.112;5.420;2023-02-14T08:55:11;103585.97;;;3.09;87.25
75418;BME280;63997;52.112;5.420;2023-02-14T08:57:38;103581.03;;;4.05;85.79
75418;BME280;63997;52.112;5.420;2023-02-14T09:00:05;103587.75;;;4.84;83.00
75418;BME280;63997;52.112;5.420;2023-02-14T09:02:32;103578.56;;;4.93;82.68
75418;BME280;63997;52.112;5.420;2023-02-14T09:04:58;103581.78;;;5.52;83.42
75418;BME280;63997;52.112;5.420;2023-02-14T09:07:26;103565.84;;;6.69;82.35
75418;BME280;63997;52.112;5.420;2023-02-14T09:09:52;103568.06;;;8.01;80.02
75418;BME280;63997;52.112;5.420;2023-02-14T09:12:18;103559.44;;;9.63;75.77
75418;BME280;63997;52.112;5.420;2023-02-14T09:14:45;103556.44;;;10.42;72.54
75418;BME280;63997;52.112;5.420;2023-02-14T09:17:12;103548.56;;;11.22;69.40
75418;BME280;63997;52.112;5.420;2023-02-14T09:19:40;103546.56;;;11.86;66.22
75418;BME280;63997;52.112;5.420;2023-02-14T09:22:09;103551.78;;;11.71;65.51
75418;BME280;63997;52.112;5.420;2023-02-14T09:24:36;103542.69;;;12.45;64.81
75418;BME280;63997;52.112;5.420;2023-02-14T09:27:03;103538.16;;;13.37;62.10
75418;BME280;63997;52.112;5.420;2023-02-14T09:29:32;103538.28;;;14.31;58.61
75418;BME280;63997;52.112;5.420;2023-02-14T09:32:00;103539.00;;;13.97;57.26
75418;BME280;63997;52.112;5.420;2023-02-14T09:34:27;103548.84;;;13.02;59.66
75418;BME280;63997;52.112;5.420;2023-02-14T09:36:54;103544.75;;;13.60;58.76
75418;BME280;63997;52.112;5.420;2023-02-14T09:39:39;103524.78;;;14.80;56.41
75418;BME280;63997;52.112;5.420;2023-02-14T09:45:24;103533.31;;;13.49;58.22
75418;BME280;63997;52.112;5.420;2023-02-14T09:47:59;103538.03;;;11.89;62.03
75418;BME280;63997;52.112;5.420;2023-02-14T09:50:31;103541.31;;;12.07;63.85
75418;BME280;63997;52.112;5.420;2023-02-14T09:55:58;103530.09;;;13.53;59.99
75418;BME280;63997;52.112;5.420;2023-02-14T09:58:44;103533.81;;;12.04;62.71
75418;BME280;63997;52.112;5.420;2023-02-14T10:01:26;103534.56;;;10.99;66.82
75418;BME280;63997;52.112;5.420;2023-02-14T10:12:33;103531.47;;;10.21;70.91
75418;BME280;63997;52.112;5.420;2023-02-14T10:15:10;103526.38;;;9.98;71.95
75418;BME280;63997;52.112;5.420;2023-02-14T10:17:42;103530.09;;;9.75;72.49
75418;BME280;63997;52.112;5.420;2023-02-14T10:22:52;103535.78;;;9.62;73.51
75418;BME280;63997;52.112;5.420;2023-02-14T10:25:27;103530.16;;;9.58;73.28
75418;BME280;63997;52.112;5.420;2023-02-14T10:27:55;103539.44;;;9.56;74.45
75418;BME280;63997;52.112;5.420;2023-02-14T10:30:23;103533.31;;;9.55;74.05
75418;BME280;63997;52.112;5.420;2023-02-14T10:33:14;103528.56;;;9.57;74.03
75418;BME280;63997;52.112;5.420;2023-02-14T10:35:59;103524.44;;;9.66;74.42
75418;BME280;63997;52.112;5.420;2023-02-14T10:38:54;103522.00;;;9.65;74.07
75418;BME280;63997;52.112;5.420;2023-02-14T10:41:49;103522.56;;;9.67;73.93
75418;BME280;63997;52.112;5.420;2023-02-14T10:44:25;103528.03;;;9.77;74.52
75418;BME280;63997;52.112;5.420;2023-02-14T10:47:09;103521.41;;;9.79;73.95
75418;BME280;63997;52.112;5.420;2023-02-14T10:52:43;103516.88;;;9.80;73.65
75418;BME280;63997;52.112;5.420;2023-02-14T10:55:21;103510.81;;;9.85;74.10
75418;BME280;63997;52.112;5.420;2023-02-14T10:58:00;103515.59;;;9.83;73.51
75418;BME280;63997;52.112;5.420;2023-02-14T11:00:32;103517.25;;;9.89;73.57
75418;BME280;63997;52.112;5.420;2023-02-14T11:03:02;103507.63;;;10.04;72.70
75418;BME280;63997;52.112;5.420;2023-02-14T11:05:37;103506.56;;;10.05;72.50
75418;BME280;63997;52.112;5.420;2023-02-14T11:08:32;103501.88;;;10.18;73.31
75418;BME280;63997;52.112;5.420;2023-02-14T11:11:10;103502.44;;;10.20;73.25
75418;BME280;63997;52.112;5.420;2023-02-14T11:13:40;103503.38;;;10.30;72.43
75418;BME280;63997;52.112;5.420;2023-02-14T11:16:12;103501.31;;;10.38;72.52
75418;BME280;63997;52.112;5.420;2023-02-14T11:19:07;103492.88;;;10.46;72.73
75418;BME280;63997;52.112;5.420;2023-02-14T11:21:38;103487.66;;;10.56;71.36
75418;BME280;63997;52.112;5.420;2023-02-14T11:26:46;103486.16;;;10.70;71.46
75418;BME280;63997;52.112;5.420;2023-02-14T11:29:16;103478.56;;;10.84;70.36
75418;BME280;63997;52.112;5.420;2023-02-14T11:31:45;103480.22;;;10.95;70.07
75418;BME280;63997;52.112;5.420;2023-02-14T11:34:33;103474.19;;;11.10;70.59
75418;BME280;63997;52.112;5.420;2023-02-14T11:37:03;103474.25;;;11.20;69.75
75418;BME280;63997;52.112;5.420;2023-02-14T11:39:40;103479.88;;;11.24;69.75
75418;BME280;63997;52.112;5.420;2023-02-14T11:42:11;103464.19;;;11.32;69.74
75418;BME280;63997;52.112;5.420;2023-02-14T11:44:53;103457.31;;;11.42;69.26
75418;BME280;63997;52.112;5.420;2023-02-14T11:47:28;103461.03;;;11.41;68.65
75418;BME280;63997;52.112;5.420;2023-02-14T11:49:58;103462.09;;;11.45;68.64
75418;BME280;63997;52.112;5.420;2023-02-14T11:52:27;103456.81;;;11.55;69.17
75418;BME280;63997;52.112;5.420;2023-02-14T11:54:56;103448.34;;;11.63;67.70
75418;BME280;63997;52.112;5.420;2023-02-14T11:57:26;103452.06;;;11.62;67.30
75418;BME280;63997;52.112;5.420;2023-02-14T11:59:54;103449.94;;;11.64;66.91
75418;BME280;63997;52.112;5.420;2023-02-14T12:02:34;103440.09;;;11.75;67.79
75418;BME280;63997;52.112;5.420;2023-02-14T12:07:43;103440.09;;;11.75;65.90
75418;BME280;63997;52.112;5.420;2023-02-14T12:12:57;103424.91;;;11.80;66.52
75418;BME280;63997;52.112;5.420;2023-02-14T12:18:00;103428.69;;;11.84;66.76
75418;BME280;63997;52.112;5.420;2023-02-14T12:20:37;103424.41;;;11.88;65.49
75418;BME280;63997;52.112;5.420;2023-02-14T12:23:12;103423.38;;;11.84;65.42
75418;BME280;63997;52.112;5.420;2023-02-14T12:25:49;103409.47;;;11.82;66.72
75418;BME280;63997;52.112;5.420;2023-02-14T12:28:40;103419.66;;;11.90;66.39
75418;BME280;63997;52.112;5.420;2023-02-14T12:31:12;103410.84;;;11.90;66.50
75418;BME280;63997;52.112;5.420;2023-02-14T12:33:39;103412.97;;;11.98;65.52
75418;BME280;63997;52.112;5.420;2023-02-14T12:36:24;103412.19;;;11.98;65.89
75418;BME280;63997;52.112;5.420;2023-02-14T12:41:56;103400.19;;;11.90;65.17
75418;BME280;63997;52.112;5.420;2023-02-14T12:54:42;103385.50;;;11.98;64.27
75418;BME280;63997;52.112;5.420;2023-02-14T12:57:21;103380.97;;;11.98;64.88
75418;BME280;63997;52.112;5.420;2023-02-14T13:02:51;103374.06;;;12.07;64.46
75418;BME280;63997;52.112;5.420;2023-02-14T13:05:38;103368.72;;;11.97;64.43
75418;BME280;63997;52.112;5.420;2023-02-14T13:08:26;103359.38;;;12.05;65.73
75418;BME280;63997;52.112;5.420;2023-02-14T13:11:17;103367.66;;;12.08;65.10
75418;BME280;63997;52.112;5.420;2023-02-14T13:16:51;103352.16;;;12.05;63.52
75418;BME280;63997;52.112;5.420;2023-02-14T13:19:40;103348.97;;;12.18;65.24
75418;BME280;63997;52.112;5.420;2023-02-14T13:22:18;103341.22;;;12.17;63.39
75418;BME280;63997;52.112;5.420;2023-02-14T13:24:48;103331.09;;;12.14;63.79
75418;BME280;63997;52.112;5.420;2023-02-14T13:27:21;103331.34;;;12.17;63.66
75418;BME280;63997;52.112;5.420;2023-02-14T13:29:56;103327.09;;;12.22;64.45
75418;BME280;63997;52.112;5.420;2023-02-14T13:32:26;103322.00;;;12.30;63.53
75418;BME280;63997;52.112;5.420;2023-02-14T13:34:54;103320.16;;;12.31;65.05
75418;BME280;63997;52.112;5.420;2023-02-14T13:37:22;103322.53;;;12.37;64.56
75418;BME280;63997;52.112;5.420;2023-02-14T13:39:53;103324.94;;;12.34;63.61
75418;BME280;63997;52.112;5.420;2023-02-14T13:51:04;103315.06;;;12.34;63.34
75418;BME280;63997;52.112;5.420;2023-02-14T13:53:39;103313.72;;;12.32;63.55
75418;BME280;63997;52.112;5.420;2023-02-14T13:58:54;103306.53;;;12.32;63.39
75418;BME280;63997;52.112;5.420;2023-02-14T14:01:43;103304.38;;;12.34;62.52
75418;BME280;63997;52.112;5.420;2023-02-14T14:09:52;103294.25;;;12.41;63.24
75418;BME280;63997;52.112;5.420;2023-02-14T14:20:51;103294.47;;;12.45;61.27
75418;BME280;63997;52.112;5.420;2023-02-14T14:23:33;103288.06;;;12.51;62.54
75418;BME280;63997;52.112;5.420;2023-02-14T14:26:00;103281.38;;;12.54;62.02
75418;BME280;63997;52.112;5.420;2023-02-14T14:28:30;103280.88;;;12.52;63.24
75418;BME280;63997;52.112;5.420;2023-02-14T14:30:57;103285.13;;;12.53;61.63
75418;BME280;63997;52.112;5.420;2023-02-14T14:33:32;103282.72;;;12.51;62.57
75418;BME280;63997;52.112;5.420;2023-02-14T14:36:04;103282.47;;;12.48;62.01
75418;BME280;63997;52.112;5.420;2023-02-14T14:38:45;103287.03;;;12.42;62.44
75418;BME280;63997;52.112;5.420;2023-02-14T14:41:12;103288.91;;;12.41;61.65
75418;BME280;63997;52.112;5.420;2023-02-14T14:43:39;103290.22;;;12.39;61.90
75418;BME280;63997;52.112;5.420;2023-02-14T14:46:13;103282.50;;;12.37;61.98
75418;BME280;63997;52.112;5.420;2023-02-14T14:48:46;103280.91;;;12.36;62.69
75418;BME280;63997;52.112;5.420;2023-02-14T14:51:34;103277.97;;;12.33;62.75
75418;BME280;63997;52.112;5.420;2023-02-14T14:54:16;103276.09;;;12.28;62.02
75418;BME280;63997;52.112;5.420;2023-02-14T14:56:48;103267.88;;;12.25;62.61
75418;BME280;63997;52.112;5.420;2023-02-14T15:01:48;103270.25;;;12.26;63.33